Tuesday, October 16, 2018, 10:47 PM GMT
Back to Local

CYPQ, Peterborough Airport

Location: , , Canada Lat: 44.233
Local Time: 10:47 PM GMT (22:47 GMT) Lon: -78.367
Time Zone: GMT Elev: 626 ft

Show me the last for .
Show Decoded

2018-10-16 22:00 METAR CYPQ 162200Z AUTO 20007KT 9SM FEW085 SCT140 BKN160 OVC180 09/00 A2990 RMK
                 SLP132 =
2018-10-16 21:00 METAR CYPQ 162100Z AUTO 23008KT 9SM CLR 09/01 A2991 RMK SLP136 =
2018-10-16 20:00 METAR CYPQ 162000Z AUTO 20010G16KT 9SM SCT100 BKN170 08/M00 A2994 RMK SLP146 =
2018-10-16 19:00 METAR CYPQ 161900Z AUTO 24009G20KT 9SM BKN095 OVC170 09/M00 A2995 RMK SLP151 =
2018-10-16 18:00 METAR CYPQ 161800Z AUTO 25011G22KT 200V280 9SM FEW043 BKN100 BKN120 10/01 A2998
                 RMK SLP158 =
2018-10-16 17:00 METAR CYPQ 161700Z AUTO 25013KT 200V280 9SM SCT041 BKN130 08/00 A3002 RMK SLP172
                 =
2018-10-16 16:00 METAR CYPQ 161600Z AUTO 21012G19KT 190V260 9SM SCT039 BKN140 08/M00 A3005 RMK
                 SLP182 =
2018-10-16 15:00 METAR CYPQ 161500Z AUTO 25012G19KT 9SM CLR 07/00 A3006 RMK SLP188 =
2018-10-16 14:00 METAR CYPQ 161400Z AUTO 23008G15KT 9SM OVC049 05/00 A3009 RMK SLP198 =
2018-10-16 13:00 METAR CYPQ 161300Z AUTO 22004KT 190V260 9SM BKN049 04/01 A3009 RMK SLP199 =
2018-10-16 12:00 METAR CYPQ 161200Z AUTO 20003KT 9SM FEW048 01/M00 A3008 RMK SLP194 =
2018-10-16 11:05 METAR CYPQ 161105Z AUTO 21003KT 9SM FEW022 SCT028 OVC033 03/01 A3007 RMK SLP190
                 =
2018-10-16 11:00 METAR CYPQ 161100Z AUTO 21004KT 9SM -RA BKN026 BKN031 OVC039 03/01 A3007 RMK
                 SLP190 =
2018-10-16 10:50 METAR CYPQ 161050Z AUTO 25006KT 9SM -RA SCT021 BKN031 OVC039 03/02 A3007 RMK
                 SLP189 =
2018-10-16 10:40 METAR CYPQ 161040Z AUTO 24005KT 9SM -RA BKN023 OVC038 03/01 A3007 RMK SLP190 =
2018-10-16 10:36 METAR CYPQ 161036Z AUTO 25006KT 220V280 9SM BKN021 BKN026 OVC038 03/02 A3007 RMK
                 SLP190 =
2018-10-16 10:13 METAR CYPQ 161013Z AUTO 26007KT 9SM -RA BKN021 OVC028 03/02 A3007 RMK SLP190 =
2018-10-16 10:00 METAR CYPQ 161000Z AUTO 25005KT 9SM BKN023 OVC033 03/01 A3007 RMK SLP189 =
2018-10-16 09:55 METAR CYPQ 160955Z AUTO 25006KT 210V290 9SM BKN023 BKN030 OVC036 03/01 A3007 RMK
                 SLP188 =
2018-10-16 09:49 METAR CYPQ 160949Z AUTO 25004KT 220V290 9SM SCT023 BKN030 OVC037 03/01 A3007 RMK
                 SLP188 =
2018-10-16 09:46 METAR CYPQ 160946Z AUTO 25005KT 9SM BKN023 BKN033 OVC040 03/01 A3007 RMK SLP188
                 =
2018-10-16 09:00 METAR CYPQ 160900Z AUTO 25008KT 9SM FEW030 SCT035 BKN042 BKN055 03/01 A3005 RMK
                 SLP184 =
2018-10-16 08:00 METAR CYPQ 160800Z AUTO 25010G15KT 9SM FEW046 03/01 A3004 RMK SLP180 =
2018-10-16 07:25 METAR CYPQ 160725Z AUTO 26010G16KT 240V300 9SM FEW020 BKN030 BKN040 BKN048 03/01
                 A3005 RMK SLP181 =
2018-10-16 07:08 METAR CYPQ 160708Z AUTO 26012KT 9SM -RA FEW025 BKN032 BKN040 03/01 A3004 RMK
                 SLP179 =
2018-10-16 07:03 METAR CYPQ 160703Z AUTO 25009KT 9SM FEW025 SCT034 BKN042 03/01 A3004 RMK SLP179
                 =
2018-10-16 07:00 METAR CYPQ 160700Z AUTO 25008KT 9SM -RA FEW025 SCT037 03/01 A3004 RMK SLP179 =
2018-10-16 06:49 METAR CYPQ 160649Z AUTO 26009G17KT 9SM -RA SCT033 03/01 A3003 RMK SLP177 =
2018-10-16 06:00 METAR CYPQ 160600Z AUTO 26012KT 9SM SCT035 SCT055 03/00 A3003 RMK SLP175 =
2018-10-16 05:31 METAR CYPQ 160531Z AUTO 26016G22KT 9SM FEW032 SCT043 BKN055 03/00 A3003 RMK
                 SLP175 =
2018-10-16 05:15 METAR CYPQ 160515Z AUTO 27011G17KT 9SM -RA BKN036 OVC049 03/00 A3003 RMK SLP176
                 =
2018-10-16 05:00 METAR CYPQ 160500Z AUTO 28014G27KT 9SM FEW020 BKN038 OVC050 03/01 A3003 RMK
                 SLP176 =
2018-10-16 04:54 METAR CYPQ 160454Z AUTO 27021G27KT 9SM FEW020 BKN038 OVC050 03/01 A3002 RMK
                 SLP173 =
2018-10-16 04:00 METAR CYPQ 160400Z AUTO 26011G17KT 9SM BKN043 BKN060 04/M00 A3001 RMK SLP168 =
2018-10-16 03:00 METAR CYPQ 160300Z AUTO 25011KT 9SM FEW035 SCT055 03/M00 A2999 RMK SLP163 =
2018-10-16 02:22 METAR CYPQ 160222Z AUTO 27006KT 9SM FEW022 02/01 A2998 RMK TS/LTNG TEMPO UNAVBL
                 SLP160 =
2018-10-16 02:08 METAR CYPQ 160208Z AUTO 28012G19KT 9SM -RA FEW010 SCT021 SCT029 BKN038 03/02
                 A2998 RMK TS/LTNG TEMPO UNAVBL SLP158 =
2018-10-16 02:05 METAR CYPQ 160205Z AUTO 28015KT 9SM FEW022 SCT029 SCT038 BKN060 03/01 A2998 RMK
                 TS/LTNG TEMPO UNAVBL SLP158 =
2018-10-16 02:00 METAR CYPQ 160200Z AUTO 27011G20KT 9SM -RA FEW020 SCT026 SCT038 BKN060 02/01
                 A2997 RMK TS/LTNG TEMPO UNAVBL SLP156 =
2018-10-16 01:56 METAR CYPQ 160156Z AUTO 28013G20KT 9SM -RA FEW011 SCT022 BKN027 BKN040 02/01
                 A2997 RMK TS/LTNG TEMPO UNAVBL SLP156 =
2018-10-16 00:48 METAR CYPQ 160048Z AUTO 27018G25KT 9SM FEW023 SCT043 BKN065 03/01 A2991 RMK
                 SLP135 =
2018-10-16 00:33 METAR CYPQ 160033Z AUTO 28020G27KT 9SM -RA FEW020 SCT029 BKN042 OVC065 05/02
                 A2992 RMK PRESRR SLP138 =
2018-10-16 00:21 METAR CYPQ 160021Z AUTO 27022G28KT 9SM SCT025 SCT039 BKN047 OVC065 05/02 A2989
                 RMK SLP128 =
2018-10-16 00:00 METAR CYPQ 160000Z AUTO 27017G24KT 9SM -RA SCT026 BKN035 BKN046 OVC070 05/03
                 A2987 RMK SLP123 =
2018-10-15 23:51 METAR CYPQ 152351Z AUTO 27018G25KT 9SM -RA FEW028 BKN036 BKN046 OVC070 06/04
                 A2987 RMK SLP123 =
2018-10-15 23:50 METAR CYPQ 152350Z AUTO 28016G25KT 9SM SCT028 BKN036 OVC046 06/03 A2987 RMK
                 PRESRR SLP123 =
2018-10-15 23:36 METAR CYPQ 152336Z AUTO 28023G30KT 9SM -RA FEW030 BKN036 BKN048 07/03 A2986 RMK
                 SLP118 =
2018-10-15 23:10 METAR CYPQ 152310Z AUTO 27013G22KT 9SM FEW041 SCT050 BKN065 06/03 A2984 RMK
                 SLP113 =
2018-10-15 23:00 METAR CYPQ 152300Z AUTO 27021G28KT 9SM -RA SCT048 BKN060 07/03 A2983 RMK SLP109
                 =
2018-10-15 22:58 METAR CYPQ 152258Z AUTO 26021G28KT 9SM -RA SCT048 BKN060 07/03 A2983 RMK SLP109
                 =

Support USWX by starting your Amazon purchase here.